Time;durP1;ratioP1;P1;durP2;ratioP2;P2;SDS_P1;SDS_P2;PMS_P1;PMS_P2;Temp;Humidity;BMP_temperature;BMP_pressure;BME280_temperature;BME280_humidity;BME280_pressure;Samples;Min_cycle;Max_cycle;Signal;HPM_P1;HPM_P2
2022/09/07 00:00:55;;;;;;;1.83;1.10;;;15.80;97.60;;;;;;5050294;28;20217;-55
2022/09/07 00:03:22;;;;;;;1.47;1.23;;;15.70;97.60;;;;;;5047049;28;20237;-57
2022/09/07 00:05:51;;;;;;;1.33;1.23;;;15.70;97.60;;;;;;5060405;28;20198;-56
2022/09/07 00:08:21;;;;;;;2.60;1.13;;;15.70;97.60;;;;;;5034248;28;20200;-57
2022/09/07 00:10:53;;;;;;;2.40;1.07;;;15.70;97.50;;;;;;5040687;28;20208;-55
2022/09/07 00:13:22;;;;;;;1.37;1.27;;;15.70;97.50;;;;;;5044214;28;20441;-55
2022/09/07 00:15:50;;;;;;;2.90;1.40;;;15.70;97.60;;;;;;5047451;28;20225;-56
2022/09/07 00:18:16;;;;;;;2.50;1.00;;;15.70;97.60;;;;;;5041621;28;20220;-55
2022/09/07 00:20:43;;;;;;;2.83;1.20;;;15.70;97.80;;;;;;5041316;28;20209;-50
2022/09/07 00:23:11;;;;;;;1.37;1.10;;;15.70;97.80;;;;;;5026947;28;20233;-54
2022/09/07 00:25:39;;;;;;;2.07;1.00;;;15.70;98.00;;;;;;5046565;28;20199;-58
2022/09/07 00:28:06;;;;;;;1.73;1.07;;;15.60;98.10;;;;;;5041811;28;20194;-56
2022/09/07 00:30:40;;;;;;;1.47;1.30;;;15.60;98.20;;;;;;5038075;28;20211;-54
2022/09/07 00:33:07;;;;;;;1.20;1.00;;;15.60;98.10;;;;;;5041671;28;20204;-56
2022/09/07 00:35:38;;;;;;;2.47;1.20;;;15.60;98.20;;;;;;5044138;28;20227;-56
2022/09/07 00:38:05;;;;;;;1.80;1.10;;;15.50;98.30;;;;;;5030809;28;20210;-54
2022/09/07 00:40:32;;;;;;;1.27;1.17;;;15.50;98.50;;;;;;5042714;28;20266;-52
2022/09/07 00:42:59;;;;;;;4.23;1.10;;;15.50;98.60;;;;;;5048562;28;20719;-57
2022/09/07 00:45:26;;;;;;;1.33;1.00;;;15.40;98.80;;;;;;5056986;28;20210;-52
2022/09/07 00:47:58;;;;;;;1.67;1.30;;;15.40;98.90;;;;;;5066992;28;20735;-54
2022/09/07 00:50:31;;;;;;;2.37;1.20;;;15.40;98.80;;;;;;5044690;28;20227;-56
2022/09/07 00:53:03;;;;;;;2.53;1.23;;;15.40;98.80;;;;;;5031455;28;20218;-55
2022/09/07 00:55:31;;;;;;;2.23;1.40;;;15.40;98.90;;;;;;5048419;28;20199;-56
2022/09/07 00:57:59;;;;;;;4.50;2.20;;;15.30;99.00;;;;;;5048014;28;20263;-52
2022/09/07 01:00:27;;;;;;;1.10;1.10;;;15.30;99.10;;;;;;5047683;28;20195;-54
2022/09/07 01:02:57;;;;;;;1.80;1.17;;;15.30;99.30;;;;;;5042842;28;20223;-55
2022/09/07 01:05:30;;;;;;;5.33;1.60;;;15.30;99.70;;;;;;5042980;28;20379;-51
2022/09/07 01:07:57;;;;;;;2.30;1.00;;;15.20;99.30;;;;;;5053902;28;20213;-57
2022/09/07 01:10:29;;;;;;;1.43;1.33;;;15.20;99.20;;;;;;5036458;28;20219;-57
2022/09/07 01:12:56;;;;;;;2.70;1.10;;;15.30;99.20;;;;;;5047664;28;20211;-56
2022/09/07 01:15:26;;;;;;;4.90;1.30;;;15.20;99.30;;;;;;5050166;28;20196;-53
2022/09/07 01:18:03;;;;;;;1.40;1.10;;;15.20;99.30;;;;;;5044994;28;20214;-54
2022/09/07 01:20:49;;;;;;;2.37;0.97;;;15.20;99.20;;;;;;5040560;28;20210;-50
2022/09/07 01:23:53;;;;;;;3.20;1.70;;;15.20;99.60;;;;;;5030081;28;20218;-52
2022/09/07 01:26:47;;;;;;;1.53;1.20;;;15.20;99.40;;;;;;5046150;28;20192;-55
2022/09/07 01:29:23;;;;;;;3.27;1.20;;;15.20;99.40;;;;;;5043771;28;20187;-53
2022/09/07 01:31:56;;;;;;;1.47;1.10;;;15.20;99.40;;;;;;5048937;28;20198;-56
2022/09/07 01:34:25;;;;;;;1.43;1.07;;;15.20;99.40;;;;;;5046852;28;20295;-53
2022/09/07 01:37:00;;;;;;;0.90;0.90;;;15.20;99.50;;;;;;5046048;28;20199;-53
2022/09/07 01:39:34;;;;;;;1.37;1.10;;;15.20;99.50;;;;;;5032968;28;20210;-52
2022/09/07 01:42:06;;;;;;;3.20;1.87;;;15.20;99.60;;;;;;5050778;28;20202;-55
2022/09/07 01:44:39;;;;;;;1.40;1.30;;;15.20;99.60;;;;;;5047153;28;20632;-57
2022/09/07 01:47:12;;;;;;;1.83;1.20;;;15.10;99.60;;;;;;5043263;28;20200;-56
2022/09/07 01:49:43;;;;;;;1.03;0.97;;;15.20;99.70;;;;;;5047436;28;20199;-54
2022/09/07 01:52:14;;;;;;;11.37;1.57;;;15.20;99.90;;;;;;5038833;28;20209;-56
2022/09/07 01:54:47;;;;;;;1.40;1.30;;;15.20;99.90;;;;;;5032154;28;20230;-55
2022/09/07 01:57:18;;;;;;;1.80;1.43;;;15.10;99.90;;;;;;5037787;28;20196;-57
2022/09/07 01:59:53;;;;;;;1.90;1.00;;;15.10;99.90;;;;;;5027436;28;20195;-52
2022/09/07 02:02:27;;;;;;;1.30;1.20;;;15.10;99.90;;;;;;5037376;28;20521;-51
2022/09/07 02:05:04;;;;;;;2.03;0.90;;;15.10;99.90;;;;;;5044495;28;20195;-53
2022/09/07 02:07:35;;;;;;;4.23;0.90;;;15.10;99.90;;;;;;5059094;28;20884;-51
2022/09/07 02:10:07;;;;;;;2.40;1.33;;;15.10;99.90;;;;;;5033381;28;20187;-55
2022/09/07 02:12:37;;;;;;;2.43;1.37;;;15.10;99.90;;;;;;5040236;28;20199;-49
2022/09/07 02:15:13;;;;;;;3.13;1.63;;;15.10;99.90;;;;;;5041718;28;20235;-52
2022/09/07 02:17:43;;;;;;;1.47;1.37;;;15.10;99.90;;;;;;5047278;28;20694;-53
2022/09/07 02:20:13;;;;;;;4.37;1.70;;;15.20;99.90;;;;;;5058275;28;20206;-54
2022/09/07 02:22:44;;;;;;;1.50;1.40;;;15.20;99.80;;;;;;5044507;28;20215;-56
2022/09/07 02:25:16;;;;;;;2.53;1.70;;;15.20;99.80;;;;;;5050430;28;20195;-54
2022/09/07 02:27:46;;;;;;;2.60;1.37;;;15.20;99.80;;;;;;5032809;28;20290;-53
2022/09/07 02:30:15;;;;;;;3.03;1.67;;;15.20;99.60;;;;;;5038323;28;20210;-56
2022/09/07 02:32:42;;;;;;;2.47;1.57;;;15.20;99.60;;;;;;5044911;28;20325;-55
2022/09/07 02:35:10;;;;;;;1.87;1.43;;;15.30;99.50;;;;;;5039775;28;20630;-55
2022/09/07 02:37:38;;;;;;;3.33;1.20;;;15.30;99.40;;;;;;5055908;28;20198;-52
2022/09/07 02:40:07;;;;;;;1.87;1.70;;;15.30;99.30;;;;;;5062476;28;20651;-57
2022/09/07 02:42:35;;;;;;;2.53;1.47;;;15.30;99.30;;;;;;5029700;28;20211;-54
2022/09/07 02:45:06;;;;;;;1.53;1.43;;;15.30;99.50;;;;;;5044058;28;20225;-56
2022/09/07 02:47:43;;;;;;;2.17;1.70;;;15.30;99.50;;;;;;5046755;28;20210;-55
2022/09/07 02:50:24;;;;;;;3.03;1.60;;;15.30;99.70;;;;;;5032778;28;20214;-54
2022/09/07 02:53:06;;;;;;;6.93;2.03;;;15.20;99.60;;;;;;5047616;28;20211;-54
2022/09/07 02:55:42;;;;;;;2.70;2.03;;;15.30;99.90;;;;;;5043867;28;20195;-55
2022/09/07 02:58:22;;;;;;;2.30;1.27;;;15.20;99.90;;;;;;5029706;28;20203;-57
2022/09/07 03:00:55;;;;;;;2.30;1.70;;;15.20;99.90;;;;;;5043313;28;20187;-50
2022/09/07 03:03:32;;;;;;;2.10;1.63;;;15.20;99.90;;;;;;5020189;28;20216;-53
2022/09/07 03:06:02;;;;;;;2.90;1.60;;;15.10;99.90;;;;;;5030278;28;20682;-56
2022/09/07 03:08:34;;;;;;;4.10;1.90;;;15.20;99.90;;;;;;5046196;28;20194;-53
2022/09/07 03:11:03;;;;;;;3.53;1.60;;;15.20;99.90;;;;;;5040753;28;20214;-55
2022/09/07 03:13:30;;;;;;;1.60;1.50;;;15.20;99.80;;;;;;5029870;28;20519;-55
2022/09/07 03:15:57;;;;;;;1.60;1.50;;;15.20;99.80;;;;;;5045776;28;20203;-56
2022/09/07 03:18:27;;;;;;;4.47;1.87;;;15.20;99.80;;;;;;5060792;28;20270;-56
2022/09/07 03:20:54;;;;;;;2.67;2.00;;;15.20;99.80;;;;;;5044152;28;20203;-57
2022/09/07 03:23:22;;;;;;;2.10;1.90;;;15.20;99.70;;;;;;5046597;28;20963;-57
2022/09/07 03:25:49;;;;;;;3.33;2.10;;;15.20;99.70;;;;;;5046084;28;20202;-54
2022/09/07 03:28:16;;;;;;;4.37;2.50;;;15.20;99.60;;;;;;5028195;28;20200;-54
2022/09/07 03:30:46;;;;;;;4.17;2.00;;;15.20;99.50;;;;;;5044381;28;20194;-55
2022/09/07 03:33:14;;;;;;;4.57;2.30;;;15.30;99.60;;;;;;5038471;28;20230;-55
2022/09/07 03:35:43;;;;;;;5.90;2.10;;;15.20;99.50;;;;;;5042623;28;20191;-54
2022/09/07 03:38:10;;;;;;;2.50;2.30;;;15.30;99.40;;;;;;5038286;28;20207;-56
2022/09/07 03:40:37;;;;;;;4.00;2.50;;;15.30;99.40;;;;;;5045583;28;20222;-55
2022/09/07 03:43:04;;;;;;;4.50;2.70;;;15.30;99.30;;;;;;5041459;28;20219;-55
2022/09/07 03:45:31;;;;;;;6.00;2.77;;;15.30;99.20;;;;;;5038460;28;20195;-52
2022/09/07 03:47:58;;;;;;;5.87;2.67;;;15.30;99.00;;;;;;5037502;28;20203;-55
2022/09/07 03:50:24;;;;;;;6.13;2.67;;;15.40;98.90;;;;;;5040042;28;20901;-54
2022/09/07 03:52:52;;;;;;;3.20;2.47;;;15.40;98.90;;;;;;5049768;28;20249;-53
2022/09/07 03:55:20;;;;;;;2.90;2.70;;;15.40;98.90;;;;;;5039168;28;20186;-52
2022/09/07 03:57:47;;;;;;;3.33;2.67;;;15.40;98.90;;;;;;5051382;28;20641;-51
2022/09/07 04:00:14;;;;;;;4.50;2.73;;;15.40;98.80;;;;;;5024945;28;20404;-55
2022/09/07 04:02:41;;;;;;;4.10;3.03;;;15.40;98.70;;;;;;5045493;28;20202;-54
2022/09/07 04:05:09;;;;;;;3.07;2.60;;;15.40;99.10;;;;;;5039642;28;20607;-56
2022/09/07 04:07:35;;;;;;;3.10;2.77;;;15.40;98.80;;;;;;5046906;28;20195;-54
2022/09/07 04:10:04;;;;;;;4.77;2.33;;;15.40;98.90;;;;;;5044523;28;20204;-56
2022/09/07 04:12:30;;;;;;;5.83;2.97;;;15.40;99.00;;;;;;5051592;28;20194;-56
2022/09/07 04:14:57;;;;;;;3.87;2.83;;;15.40;99.00;;;;;;5051719;28;20201;-55
2022/09/07 04:17:24;;;;;;;5.07;3.07;;;15.40;99.10;;;;;;5037427;28;20237;-53
2022/09/07 04:19:52;;;;;;;6.03;4.00;;;15.40;99.10;;;;;;5042784;28;20203;-53
2022/09/07 04:22:18;;;;;;;5.03;3.30;;;15.40;98.90;;;;;;5045044;28;20219;-56
2022/09/07 04:24:45;;;;;;;4.90;3.30;;;15.40;98.90;;;;;;5037411;28;20225;-57
2022/09/07 04:27:13;;;;;;;3.93;3.30;;;15.40;98.80;;;;;;5037179;28;20207;-55
2022/09/07 04:29:40;;;;;;;5.57;3.80;;;15.50;98.80;;;;;;5040237;28;20210;-53
2022/09/07 04:32:07;;;;;;;4.63;3.37;;;15.50;98.80;;;;;;5026108;28;20207;-57
2022/09/07 04:34:34;;;;;;;6.33;3.60;;;15.40;98.80;;;;;;5048982;28;20222;-57
2022/09/07 04:37:01;;;;;;;3.70;3.40;;;15.40;98.80;;;;;;5042697;28;20248;-52
2022/09/07 04:39:28;;;;;;;5.37;3.33;;;15.50;98.90;;;;;;5046729;28;20570;-53
2022/09/07 04:41:55;;;;;;;4.30;3.60;;;15.50;98.80;;;;;;5042798;28;20196;-55
2022/09/07 04:44:23;;;;;;;5.37;3.57;;;15.50;98.70;;;;;;5050842;28;20226;-57
2022/09/07 04:46:51;;;;;;;4.47;3.67;;;15.50;98.60;;;;;;5040627;28;20203;-56
2022/09/07 04:49:19;;;;;;;6.23;3.50;;;15.50;98.50;;;;;;5043032;28;20187;-56
2022/09/07 04:51:46;;;;;;;4.53;3.27;;;15.50;98.40;;;;;;5044738;28;20191;-58
2022/09/07 04:54:13;;;;;;;5.53;4.17;;;15.60;98.30;;;;;;5052583;28;20210;-58
2022/09/07 04:56:40;;;;;;;5.83;3.70;;;15.60;98.20;;;;;;5048820;28;20206;-57
2022/09/07 04:59:07;;;;;;;4.17;3.67;;;15.60;98.20;;;;;;5043836;28;20353;-56
2022/09/07 05:01:35;;;;;;;3.57;3.20;;;15.60;98.10;;;;;;5051461;28;20660;-53
2022/09/07 05:04:03;;;;;;;3.97;3.57;;;15.60;98.10;;;;;;5033277;28;20800;-56
2022/09/07 05:06:30;;;;;;;5.00;3.73;;;15.60;98.00;;;;;;5055696;28;20206;-53
2022/09/07 05:08:58;;;;;;;7.03;3.50;;;15.70;97.90;;;;;;5062386;28;20239;-56
2022/09/07 05:11:25;;;;;;;5.20;4.13;;;15.70;97.80;;;;;;5047453;28;20202;-57
2022/09/07 05:13:52;;;;;;;6.43;4.70;;;15.70;97.70;;;;;;5042769;28;20212;-56
2022/09/07 05:16:22;;;;;;;9.60;4.77;;;15.70;97.60;;;;;;5046173;28;20204;-55
2022/09/07 05:18:52;;;;;;;4.83;4.00;;;15.80;97.60;;;;;;5047741;28;20198;-58
2022/09/07 05:21:20;;;;;;;5.60;3.70;;;15.80;97.60;;;;;;5047469;28;20210;-57
2022/09/07 05:23:50;;;;;;;4.17;3.20;;;15.80;97.60;;;;;;5045662;28;20243;-58
2022/09/07 05:26:18;;;;;;;3.80;2.90;;;15.80;97.60;;;;;;5057451;28;20714;-56
2022/09/07 05:28:44;;;;;;;5.80;3.40;;;15.80;97.60;;;;;;5048480;28;20594;-58
2022/09/07 05:31:13;;;;;;;7.27;3.50;;;15.80;97.60;;;;;;5048407;28;20195;-56
2022/09/07 05:33:40;;;;;;;4.20;3.80;;;15.90;97.60;;;;;;5048479;28;20298;-57
2022/09/07 05:36:08;;;;;;;4.07;3.37;;;15.90;97.60;;;;;;5032876;28;20200;-56
2022/09/07 05:38:36;;;;;;;13.20;3.70;;;15.90;97.70;;;;;;5047954;28;20218;-57
2022/09/07 05:41:11;;;;;;;3.27;2.97;;;15.90;97.90;;;;;;5043104;28;20199;-56
2022/09/07 05:43:38;;;;;;;3.90;3.27;;;15.90;97.90;;;;;;5043334;28;20223;-56
2022/09/07 05:46:05;;;;;;;33.17;6.10;;;15.90;97.90;;;;;;5041007;28;20282;-55
2022/09/07 05:48:32;;;;;;;4.73;2.83;;;15.90;98.00;;;;;;5049606;28;20203;-57
2022/09/07 05:50:59;;;;;;;6.10;3.50;;;16.00;98.00;;;;;;5052465;28;20214;-59
2022/09/07 05:53:27;;;;;;;4.97;3.00;;;15.90;98.00;;;;;;5051364;28;20728;-64
2022/09/07 05:55:57;;;;;;;10.30;3.53;;;16.00;98.10;;;;;;5045723;28;20192;-62
2022/09/07 05:58:25;;;;;;;5.33;3.33;;;16.00;98.20;;;;;;5045346;28;20661;-50
2022/09/07 06:00:51;;;;;;;4.40;3.57;;;16.00;98.20;;;;;;5040107;28;20206;-53
2022/09/07 06:03:19;;;;;;;7.10;3.60;;;16.00;98.20;;;;;;5043096;28;20230;-52
2022/09/07 06:05:45;;;;;;;6.50;3.03;;;16.00;98.30;;;;;;5031621;28;20206;-52
2022/09/07 06:08:12;;;;;;;4.80;3.60;;;15.90;98.20;;;;;;5046232;28;20203;-52
2022/09/07 06:10:40;;;;;;;4.60;3.37;;;15.90;98.20;;;;;;5041535;28;20653;-52
2022/09/07 06:13:08;;;;;;;5.43;2.87;;;16.00;98.20;;;;;;5040991;28;20306;-51
2022/09/07 06:15:34;;;;;;;6.93;3.10;;;16.00;98.20;;;;;;5049197;28;20192;-55
2022/09/07 06:18:01;;;;;;;5.17;3.53;;;16.00;98.20;;;;;;5049492;28;20183;-57
2022/09/07 06:20:28;;;;;;;6.83;3.67;;;16.00;98.20;;;;;;5035758;28;20219;-54
2022/09/07 06:22:54;;;;;;;9.23;3.37;;;16.00;98.30;;;;;;5042053;28;20215;-51
2022/09/07 06:25:21;;;;;;;7.23;3.20;;;16.00;98.20;;;;;;5046004;28;20215;-52
2022/09/07 06:27:51;;;;;;;11.00;3.40;;;16.00;98.10;;;;;;5040025;28;20279;-56
2022/09/07 06:30:17;;;;;;;3.93;3.07;;;16.00;98.10;;;;;;5042379;28;20217;-53
2022/09/07 06:32:44;;;;;;;3.53;3.17;;;16.00;98.10;;;;;;5045315;28;20859;-52
2022/09/07 06:35:11;;;;;;;5.77;3.30;;;16.00;98.10;;;;;;5030697;28;20203;-47
2022/09/07 06:37:39;;;;;;;7.40;3.10;;;16.00;98.00;;;;;;5040767;28;20195;-53
2022/09/07 06:40:07;;;;;;;3.83;3.37;;;16.00;98.10;;;;;;5044450;28;20665;-46
2022/09/07 06:42:34;;;;;;;6.53;2.87;;;16.00;98.00;;;;;;5040852;28;20200;-53
2022/09/07 06:45:02;;;;;;;4.83;2.70;;;16.00;98.10;;;;;;5038577;28;20223;-50
2022/09/07 06:47:29;;;;;;;8.73;3.77;;;16.00;98.10;;;;;;5044055;28;20199;-48
2022/09/07 06:49:56;;;;;;;3.23;2.77;;;16.10;98.30;;;;;;5041495;28;20217;-53
2022/09/07 06:52:23;;;;;;;3.27;2.60;;;16.10;98.40;;;;;;5033248;28;20296;-49
2022/09/07 06:54:50;;;;;;;4.33;3.27;;;16.10;98.70;;;;;;5022496;28;20219;-50
2022/09/07 06:57:16;;;;;;;5.00;3.07;;;16.00;99.10;;;;;;5040549;28;20695;-50
2022/09/07 06:59:43;;;;;;;3.53;3.23;;;16.00;99.40;;;;;;5040912;28;20311;-50
2022/09/07 07:02:13;;;;;;;6.33;3.03;;;16.00;99.50;;;;;;5047926;28;20806;-50
2022/09/07 07:04:40;;;;;;;5.53;3.10;;;16.00;99.80;;;;;;5035392;28;20215;-54
2022/09/07 07:07:09;;;;;;;4.03;2.63;;;15.90;99.90;;;;;;5034521;28;20579;-53
2022/09/07 07:09:36;;;;;;;3.00;2.67;;;15.90;99.90;;;;;;5042043;28;20677;-52
2022/09/07 07:12:03;;;;;;;4.40;3.23;;;15.90;99.90;;;;;;5040454;28;20214;-54
2022/09/07 07:14:30;;;;;;;6.73;2.80;;;15.90;99.90;;;;;;5038843;28;20219;-50
2022/09/07 07:16:56;;;;;;;4.87;2.93;;;15.90;99.90;;;;;;5038750;28;20664;-55
2022/09/07 07:19:24;;;;;;;8.63;3.17;;;15.80;99.90;;;;;;5042181;28;20192;-50
2022/09/07 07:21:51;;;;;;;8.90;3.17;;;15.90;99.90;;;;;;5025919;28;20214;-49
2022/09/07 07:24:18;;;;;;;5.40;3.00;;;15.80;99.90;;;;;;5039877;28;20227;-53
2022/09/07 07:26:47;;;;;;;6.03;3.30;;;15.80;99.90;;;;;;5037189;28;20193;-55
2022/09/07 07:29:14;;;;;;;4.33;3.20;;;15.70;99.90;;;;;;5043270;28;20202;-53
2022/09/07 07:31:41;;;;;;;3.77;3.20;;;15.70;99.90;;;;;;5035027;28;20211;-48
2022/09/07 07:34:07;;;;;;;4.47;3.50;;;15.70;99.90;;;;;;5037561;28;20223;-54
2022/09/07 07:36:36;;;;;;;5.00;3.10;;;15.60;99.90;;;;;;5033073;28;20823;-54
2022/09/07 07:39:04;;;;;;;5.70;3.33;;;15.60;99.90;;;;;;5041203;28;20225;-49
2022/09/07 07:41:31;;;;;;;7.03;4.03;;;15.60;99.90;;;;;;5041896;28;20233;-48
2022/09/07 07:43:59;;;;;;;3.60;3.30;;;15.50;99.90;;;;;;5036554;28;20215;-51
2022/09/07 07:46:26;;;;;;;4.70;3.60;;;15.50;99.90;;;;;;5042660;28;20218;-48
2022/09/07 07:48:55;;;;;;;6.97;4.20;;;15.40;99.90;;;;;;5038562;28;20679;-54
2022/09/07 07:51:22;;;;;;;4.20;3.80;;;15.40;99.90;;;;;;5027001;28;20227;-54
2022/09/07 07:53:50;;;;;;;6.17;4.00;;;15.30;99.90;;;;;;5032981;28;20227;-53
2022/09/07 07:56:17;;;;;;;4.30;3.83;;;15.30;99.90;;;;;;5039918;28;20191;-51
2022/09/07 07:58:46;;;;;;;5.43;4.07;;;15.20;99.90;;;;;;5030553;28;20203;-52
2022/09/07 08:01:14;;;;;;;4.23;3.90;;;15.20;99.90;;;;;;5040324;28;20210;-56
2022/09/07 08:03:43;;;;;;;8.80;4.47;;;15.20;99.90;;;;;;5024554;28;20238;-55
2022/09/07 08:06:12;;;;;;;4.90;4.37;;;15.10;99.90;;;;;;5028023;28;20618;-55
2022/09/07 08:08:39;;;;;;;8.07;4.37;;;15.00;99.90;;;;;;5018569;28;23005;-48
2022/09/07 08:11:09;;;;;;;4.77;4.23;;;14.90;99.90;;;;;;5034373;28;20740;-46
2022/09/07 08:13:37;;;;;;;5.23;4.67;;;14.80;99.90;;;;;;5030818;28;20247;-50
2022/09/07 08:16:05;;;;;;;6.50;4.17;;;14.70;99.90;;;;;;5040682;28;20195;-52
2022/09/07 08:18:33;;;;;;;7.27;4.80;;;14.70;99.90;;;;;;5032696;28;20203;-52
2022/09/07 08:21:01;;;;;;;6.47;4.93;;;14.60;99.90;;;;;;5041786;28;20203;-49
2022/09/07 08:23:28;;;;;;;4.47;4.07;;;14.70;99.90;;;;;;5020608;28;20250;-50
2022/09/07 08:25:57;;;;;;;5.30;4.50;;;14.70;99.90;;;;;;5037024;28;20230;-52
2022/09/07 08:28:26;;;;;;;4.80;4.40;;;14.70;99.90;;;;;;5036624;28;20724;-54
2022/09/07 08:30:53;;;;;;;5.33;3.90;;;14.70;99.90;;;;;;5037880;28;20199;-52
2022/09/07 08:33:20;;;;;;;8.10;4.17;;;14.70;99.90;;;;;;5038343;28;20288;-49
2022/09/07 08:35:57;;;;;;;5.33;4.53;;;14.70;99.90;;;;;;5036545;28;20187;-48
2022/09/07 08:38:24;;;;;;;5.67;3.77;;;14.60;99.90;;;;;;5026629;28;20272;-51
2022/09/07 08:40:51;;;;;;;4.00;3.70;;;14.50;99.90;;;;;;5035897;28;20203;-51
2022/09/07 08:43:34;;;;;;;4.50;4.10;;;14.60;99.90;;;;;;5031985;28;20593;-54
2022/09/07 08:46:06;;;;;;;5.77;4.77;;;14.60;99.90;;;;;;5048016;28;20477;-51
2022/09/07 08:48:33;;;;;;;7.93;4.37;;;14.60;99.90;;;;;;5038040;28;20223;-47
2022/09/07 08:51:05;;;;;;;4.50;4.10;;;14.60;99.90;;;;;;5037143;28;20203;-55
2022/09/07 08:53:36;;;;;;;7.40;3.90;;;14.60;99.90;;;;;;5022668;28;20215;-54
2022/09/07 08:56:09;;;;;;;5.43;4.10;;;14.60;99.90;;;;;;5035745;28;20192;-49
2022/09/07 08:58:43;;;;;;;5.07;4.17;;;14.60;99.90;;;;;;5040066;28;20910;-49
2022/09/07 09:01:12;;;;;;;4.80;4.40;;;14.70;99.90;;;;;;5040755;28;20709;-51
2022/09/07 09:03:40;;;;;;;7.47;4.30;;;14.70;99.90;;;;;;5039991;28;20214;-51
2022/09/07 09:06:15;;;;;;;5.40;4.40;;;14.80;99.90;;;;;;5055104;28;20623;-53
2022/09/07 09:09:08;;;;;;;7.13;4.70;;;14.80;99.90;;;;;;5035969;28;20226;-46
2022/09/07 09:11:46;;;;;;;5.07;4.57;;;14.90;99.90;;;;;;5035365;28;20672;-46
2022/09/07 09:14:26;;;;;;;5.47;4.23;;;14.90;99.90;;;;;;5036594;28;20222;-47
2022/09/07 09:16:58;;;;;;;5.63;5.13;;;14.90;99.90;;;;;;5041383;28;20206;-45
2022/09/07 09:19:49;;;;;;;5.67;4.13;;;15.00;99.90;;;;;;5046222;28;20320;-45
2022/09/07 09:22:18;;;;;;;6.23;5.07;;;15.10;99.90;;;;;;5049707;28;20195;-46
2022/09/07 09:24:48;;;;;;;5.10;4.60;;;15.10;99.90;;;;;;5031255;28;20600;-50
2022/09/07 09:27:15;;;;;;;5.73;5.23;;;15.10;99.90;;;;;;5042204;28;20879;-48
2022/09/07 09:29:45;;;;;;;4.70;4.30;;;15.00;99.90;;;;;;5045421;28;20207;-44
2022/09/07 09:32:32;;;;;;;8.10;5.07;;;15.00;99.90;;;;;;5038326;28;20198;-41
2022/09/07 09:35:11;;;;;;;5.70;5.10;;;15.10;99.90;;;;;;5039567;28;20566;-42
2022/09/07 09:37:39;;;;;;;5.73;5.13;;;15.10;99.90;;;;;;5042733;28;20199;-44
2022/09/07 09:40:17;;;;;;;8.17;5.00;;;15.10;99.90;;;;;;5035213;28;20923;-45
2022/09/07 09:42:45;;;;;;;6.23;5.20;;;15.20;99.90;;;;;;5043400;28;20217;-45
2022/09/07 09:45:19;;;;;;;5.43;4.63;;;15.40;99.90;;;;;;5055638;28;20294;-44
2022/09/07 09:47:49;;;;;;;5.20;4.70;;;15.50;99.90;;;;;;5043040;28;20207;-45
2022/09/07 09:50:21;;;;;;;5.70;4.40;;;15.50;99.90;;;;;;5041948;28;21384;-43
2022/09/07 09:52:48;;;;;;;5.20;4.70;;;15.60;99.90;;;;;;5047065;28;20250;-50
2022/09/07 09:55:24;;;;;;;5.67;4.93;;;15.60;99.90;;;;;;5028653;28;20211;-41
2022/09/07 09:57:56;;;;;;;5.20;4.70;;;15.70;99.90;;;;;;5045929;28;20209;-48
2022/09/07 10:00:25;;;;;;;5.70;4.67;;;15.80;99.90;;;;;;5038772;28;20210;-47
2022/09/07 10:03:01;;;;;;;5.47;4.80;;;15.90;99.90;;;;;;5048261;28;20237;-43
2022/09/07 10:05:30;;;;;;;6.60;5.33;;;16.10;99.90;;;;;;5041102;28;20683;-51
2022/09/07 10:07:58;;;;;;;6.43;4.20;;;16.10;99.90;;;;;;5044819;28;20204;-50
2022/09/07 10:10:26;;;;;;;4.70;4.20;;;16.20;99.90;;;;;;5032659;28;20676;-52
2022/09/07 10:12:54;;;;;;;8.70;4.53;;;16.30;99.90;;;;;;5038941;28;20218;-49
2022/09/07 10:15:34;;;;;;;6.67;4.00;;;16.30;99.90;;;;;;5039397;28;20328;-52
2022/09/07 10:18:03;;;;;;;5.07;4.57;;;16.40;99.90;;;;;;5036310;28;20217;-52
2022/09/07 10:20:33;;;;;;;6.00;4.53;;;16.50;99.90;;;;;;5024117;28;20552;-52
2022/09/07 10:23:01;;;;;;;4.97;4.33;;;16.50;99.90;;;;;;5039954;28;20227;-47
2022/09/07 10:25:31;;;;;;;6.57;5.33;;;16.60;99.90;;;;;;5041944;28;20699;-48
2022/09/07 10:28:05;;;;;;;6.40;4.50;;;16.70;99.90;;;;;;5025305;28;20207;-45
2022/09/07 10:30:40;;;;;;;5.20;4.07;;;16.80;99.90;;;;;;5041866;28;20214;-44
2022/09/07 10:33:14;;;;;;;5.90;5.17;;;16.90;99.90;;;;;;5043116;28;20237;-48
2022/09/07 10:35:49;;;;;;;5.33;4.83;;;17.10;99.90;;;;;;5047897;28;20206;-47
2022/09/07 10:38:17;;;;;;;8.17;5.10;;;17.40;99.90;;;;;;5047459;28;20209;-47
2022/09/07 10:40:52;;;;;;;5.40;4.37;;;17.60;99.90;;;;;;5046893;28;20230;-48
2022/09/07 10:43:37;;;;;;;4.60;4.03;;;17.80;99.90;;;;;;5027764;28;20217;-49
2022/09/07 10:46:18;;;;;;;5.07;4.57;;;17.90;99.90;;;;;;5037262;28;20221;-50
2022/09/07 10:48:56;;;;;;;5.80;4.77;;;18.10;99.90;;;;;;5040603;28;20245;-46
2022/09/07 10:51:31;;;;;;;5.23;4.77;;;18.10;99.90;;;;;;5041254;28;20223;-46
2022/09/07 10:54:09;;;;;;;8.40;4.70;;;18.20;99.90;;;;;;5039277;28;20230;-45
2022/09/07 10:56:45;;;;;;;7.13;4.60;;;18.20;99.90;;;;;;5043365;28;20573;-47
2022/09/07 10:59:30;;;;;;;4.20;3.30;;;18.30;99.90;;;;;;5024025;28;20575;-46
2022/09/07 11:02:10;;;;;;;6.43;4.67;;;18.50;99.90;;;;;;5039361;28;20309;-45
2022/09/07 11:04:56;;;;;;;5.53;5.03;;;18.50;99.90;;;;;;5042912;28;20222;-46
2022/09/07 11:07:33;;;;;;;5.37;4.83;;;18.70;99.90;;;;;;5055876;28;20344;-46
2022/09/07 11:10:09;;;;;;;5.50;4.97;;;18.70;99.90;;;;;;5040914;28;20207;-46
2022/09/07 11:12:39;;;;;;;6.13;4.80;;;18.70;99.90;;;;;;5046851;28;20664;-47
2022/09/07 11:15:17;;;;;;;5.50;5.07;;;18.80;99.90;;;;;;5022816;28;20215;-45
2022/09/07 11:17:49;;;;;;;6.17;4.80;;;19.10;99.90;;;;;;5038757;28;20196;-46
2022/09/07 11:20:24;;;;;;;6.57;5.00;;;19.20;99.90;;;;;;5042054;28;20218;-48
2022/09/07 11:22:59;;;;;;;6.10;5.20;;;19.20;99.90;;;;;;5046003;28;20217;-49
2022/09/07 11:25:33;;;;;;;7.00;5.07;;;19.30;99.90;;;;;;5045384;28;20718;-48
2022/09/07 11:28:04;;;;;;;5.93;5.33;;;19.40;99.90;;;;;;5048876;28;20931;-46
2022/09/07 11:30:35;;;;;;;6.40;5.07;;;19.50;99.90;;;;;;5029597;28;20198;-45
2022/09/07 11:33:10;;;;;;;6.67;5.93;;;19.60;99.90;;;;;;5045604;28;20219;-47
2022/09/07 11:35:47;;;;;;;5.97;5.37;;;19.60;99.90;;;;;;5034128;28;20206;-53
2022/09/07 11:38:24;;;;;;;6.27;5.40;;;19.70;99.90;;;;;;5036878;28;20211;-50
2022/09/07 11:41:01;;;;;;;6.43;5.73;;;19.90;99.90;;;;;;5042370;28;20195;-46
2022/09/07 11:43:31;;;;;;;6.03;5.43;;;20.00;99.90;;;;;;5041984;28;20595;-48
2022/09/07 11:46:03;;;;;;;7.27;5.27;;;20.00;99.90;;;;;;5033939;28;20264;-49
2022/09/07 11:48:37;;;;;;;5.33;4.43;;;20.10;99.90;;;;;;5046828;28;20215;-48
2022/09/07 11:51:10;;;;;;;5.27;4.77;;;20.30;99.90;;;;;;5048225;28;20198;-48
2022/09/07 11:53:43;;;;;;;5.93;4.50;;;20.40;99.90;;;;;;5041014;28;20723;-46
2022/09/07 11:56:13;;;;;;;5.40;4.30;;;20.50;99.90;;;;;;5052108;28;20195;-47
2022/09/07 11:58:59;;;;;;;4.97;4.50;;;20.70;99.90;;;;;;5050825;28;20274;-47
2022/09/07 12:01:36;;;;;;;5.50;5.00;;;20.70;99.90;;;;;;5024415;28;20557;-45
2022/09/07 12:04:28;;;;;;;7.50;4.50;;;20.90;99.90;;;;;;5043643;28;20207;-48
2022/09/07 12:07:15;;;;;;;5.00;4.30;;;21.00;99.90;;;;;;5042170;28;20273;-46
2022/09/07 12:10:12;;;;;;;5.03;4.60;;;21.00;99.90;;;;;;5038937;28;20206;-46
2022/09/07 12:13:07;;;;;;;5.13;4.47;;;21.10;99.90;;;;;;5045486;28;20195;-46
2022/09/07 12:15:46;;;;;;;4.70;4.30;;;21.20;99.90;;;;;;5029111;28;20286;-50
2022/09/07 12:18:26;;;;;;;4.23;3.73;;;21.30;99.90;;;;;;5037411;28;20198;-47
2022/09/07 12:20:54;;;;;;;4.57;4.17;;;21.30;99.90;;;;;;5034745;28;20216;-47
2022/09/07 12:23:27;;;;;;;5.40;4.90;;;21.40;99.90;;;;;;5053842;28;20229;-48
2022/09/07 12:26:48;;;;;;;4.43;4.13;;;21.40;99.90;;;;;;5048839;28;20273;-45
2022/09/07 12:29:21;;;;;;;8.10;4.60;;;21.50;99.90;;;;;;5060645;28;20197;-50
2022/09/07 12:31:49;;;;;;;5.60;4.40;;;21.70;99.90;;;;;;5028085;28;21827;-46
2022/09/07 12:34:53;;;;;;;6.00;4.50;;;21.90;99.90;;;;;;5044043;28;20247;-49
2022/09/07 12:37:41;;;;;;;5.20;4.67;;;22.10;99.90;;;;;;5047020;28;20694;-50
2022/09/07 12:40:46;;;;;;;4.77;4.37;;;22.30;99.90;;;;;;5050126;28;20208;-51
2022/09/07 12:43:47;;;;;;;5.27;4.80;;;22.50;99.90;;;;;;5022826;28;20238;-47
2022/09/07 12:46:19;;;;;;;4.80;4.50;;;22.60;99.90;;;;;;5043299;28;20207;-45
2022/09/07 12:48:57;;;;;;;5.20;4.33;;;22.70;99.90;;;;;;5032509;28;20214;-49
2022/09/07 12:51:35;;;;;;;4.83;4.40;;;22.90;99.90;;;;;;5050401;28;20571;-47
2022/09/07 12:54:12;;;;;;;4.93;4.53;;;23.00;99.90;;;;;;5052510;28;20333;-48
2022/09/07 12:56:44;;;;;;;4.60;4.30;;;23.10;99.90;;;;;;5057425;28;20529;-47
2022/09/07 12:59:39;;;;;;;4.80;4.40;;;23.10;99.90;;;;;;5037959;28;20207;-48
2022/09/07 13:02:27;;;;;;;4.70;4.30;;;23.20;99.90;;;;;;5032127;28;23331;-46
2022/09/07 13:05:12;;;;;;;6.68;3.97;;;23.20;99.90;;;;;;5043614;28;20219;-48
2022/09/07 13:07:50;;;;;;;4.50;4.18;;;23.30;99.70;;;;;;5041883;28;20227;-48